Time;durP1;ratioP1;P1;durP2;ratioP2;P2;SDS_P1;SDS_P2;PMS_P1;PMS_P2;Temp;Humidity;BMP_temperature;BMP_pressure;BME280_temperature;BME280_humidity;BME280_pressure;Samples;Min_cycle;Max_cycle;Signal;HPM_P1;HPM_P2
2021/12/02 00:02:18;;;;;;;6.10;0.88;;;;;;;5.40;63.57;98333.91;7399047;19;20023;-65
2021/12/02 00:04:46;;;;;;;4.22;0.70;;;;;;;5.39;64.04;98386.81;7400606;19;20076;-66
2021/12/02 00:07:15;;;;;;;1.83;0.68;;;;;;;5.36;64.15;98372.16;7397558;19;20019;-65
2021/12/02 00:09:43;;;;;;;2.40;0.75;;;;;;;5.35;64.64;98348.81;7400016;19;20036;-66
2021/12/02 00:12:12;;;;;;;3.38;1.15;;;;;;;5.35;64.17;98373.06;7397398;19;20023;-65
2021/12/02 00:14:45;;;;;;;3.30;0.98;;;;;;;5.35;63.89;98411.22;7397405;19;20015;-67
2021/12/02 00:17:19;;;;;;;5.82;1.27;;;;;;;5.34;63.97;98337.56;7397044;19;20404;-64
2021/12/02 00:22:31;;;;;;;2.22;0.80;;;;;;;5.27;63.61;98406.31;7398317;19;20007;-74
2021/12/02 00:25:05;;;;;;;2.30;0.80;;;;;;;5.30;63.90;98358.56;7399583;19;20019;-65
2021/12/02 00:27:34;;;;;;;3.42;0.90;;;;;;;5.27;64.28;98367.31;7399546;19;20029;-66
2021/12/02 00:30:06;;;;;;;2.95;1.08;;;;;;;5.26;64.30;98363.03;7399305;19;20018;-65
2021/12/02 00:32:42;;;;;;;3.63;0.77;;;;;;;5.24;64.78;98359.63;7396553;19;20014;-66
2021/12/02 00:35:11;;;;;;;5.35;0.70;;;;;;;5.19;64.44;98378.03;7397080;19;20018;-65
2021/12/02 00:37:40;;;;;;;2.65;0.82;;;;;;;5.20;65.31;98361.50;7396782;19;20015;-65
2021/12/02 00:40:10;;;;;;;6.22;0.93;;;;;;;5.17;65.61;98400.63;7398853;19;20040;-65
2021/12/02 00:42:41;;;;;;;5.00;1.00;;;;;;;5.15;66.21;98380.78;7397992;19;20386;-65
2021/12/02 00:45:12;;;;;;;3.53;1.05;;;;;;;5.14;66.15;98389.47;7398596;19;20015;-65
2021/12/02 00:47:40;;;;;;;1.60;0.85;;;;;;;5.10;65.05;98408.69;7398913;19;20019;-65
2021/12/02 00:50:09;;;;;;;3.30;0.90;;;;;;;5.10;66.45;98377.50;7396446;19;20023;-65
2021/12/02 00:52:40;;;;;;;6.80;1.13;;;;;;;5.08;65.81;98407.91;7398737;19;20494;-65
2021/12/02 00:55:10;;;;;;;4.55;1.15;;;;;;;5.07;65.53;98433.06;7398037;19;20022;-65
2021/12/02 00:57:42;;;;;;;2.60;0.90;;;;;;;5.06;65.20;98429.59;7398012;19;20021;-65
2021/12/02 01:00:15;;;;;;;2.83;0.60;;;;;;;5.05;64.33;98445.25;7398664;19;20026;-65
2021/12/02 01:02:45;;;;;;;2.63;0.88;;;;;;;5.05;64.35;98446.13;7397725;19;20019;-65
2021/12/02 01:05:13;;;;;;;4.57;1.17;;;;;;;5.05;65.05;98438.31;7396484;19;20036;-65
2021/12/02 01:07:42;;;;;;;5.05;1.30;;;;;;;5.04;64.38;98435.75;7397955;19;20021;-65
2021/12/02 01:10:11;;;;;;;5.13;0.95;;;;;;;5.02;63.77;98469.59;7397886;19;20018;-65
2021/12/02 01:12:40;;;;;;;4.60;1.42;;;;;;;4.99;63.57;98435.06;7397740;19;20018;-65
2021/12/02 01:15:14;;;;;;;3.33;1.10;;;;;;;4.95;62.76;98529.63;7396914;19;20494;-65
2021/12/02 01:17:43;;;;;;;3.05;0.77;;;;;;;4.91;62.74;98476.91;7398180;19;20014;-65
2021/12/02 01:20:13;;;;;;;1.83;0.70;;;;;;;4.87;62.92;98455.38;7397557;19;20014;-66
2021/12/02 01:22:41;;;;;;;2.35;0.73;;;;;;;4.83;63.10;98459.00;7395517;19;20018;-66
2021/12/02 01:25:10;;;;;;;2.55;0.77;;;;;;;4.81;63.17;98486.78;7396713;19;20493;-65
2021/12/02 01:27:40;;;;;;;4.85;0.55;;;;;;;4.78;63.21;98507.69;7396840;19;20021;-65
2021/12/02 01:30:09;;;;;;;4.72;1.00;;;;;;;4.73;63.05;98500.03;7397195;19;20044;-65
2021/12/02 01:32:41;;;;;;;2.38;0.70;;;;;;;4.73;63.38;98515.63;7397183;19;20014;-66
2021/12/02 01:35:11;;;;;;;5.32;0.80;;;;;;;4.69;63.27;98519.22;7396413;19;20487;-66
2021/12/02 01:37:41;;;;;;;3.25;0.80;;;;;;;4.68;63.47;98516.69;7395984;19;20029;-64
2021/12/02 01:40:11;;;;;;;7.65;1.48;;;;;;;4.67;64.13;98535.75;7394875;19;20014;-66
2021/12/02 01:42:42;;;;;;;2.95;0.60;;;;;;;4.61;64.00;98526.41;7395901;19;20010;-66
2021/12/02 01:45:17;;;;;;;5.05;0.80;;;;;;;4.63;64.64;98516.00;7396761;19;20018;-65
2021/12/02 01:47:53;;;;;;;2.28;0.73;;;;;;;4.59;64.00;98522.16;7395240;19;20048;-66
2021/12/02 01:50:23;;;;;;;5.85;1.23;;;;;;;4.59;64.91;98517.84;7395348;19;20023;-66
2021/12/02 01:52:57;;;;;;;3.65;1.40;;;;;;;4.55;64.72;98505.88;7395970;19;20010;-66
2021/12/02 01:55:26;;;;;;;2.70;1.10;;;;;;;4.53;64.34;98515.44;7395113;19;20093;-66
2021/12/02 01:58:01;;;;;;;5.72;0.82;;;;;;;4.52;64.73;98500.75;7396365;19;20013;-64
2021/12/02 02:00:33;;;;;;;3.78;0.80;;;;;;;4.51;65.10;98514.63;7396704;19;20047;-65
2021/12/02 02:03:04;;;;;;;2.17;0.82;;;;;;;4.49;64.91;98509.50;7394784;19;20014;-65
2021/12/02 02:05:33;;;;;;;8.23;1.27;;;;;;;4.50;65.95;98513.78;7394013;19;20018;-66
2021/12/02 02:08:06;;;;;;;7.82;1.20;;;;;;;4.49;65.35;98506.06;7396005;19;20014;-65
2021/12/02 02:10:37;;;;;;;4.38;0.95;;;;;;;4.50;65.80;98531.09;7393976;19;20014;-65
2021/12/02 02:13:08;;;;;;;5.75;1.05;;;;;;;4.51;66.41;98533.69;7395451;19;20015;-65
2021/12/02 02:15:37;;;;;;;4.70;1.20;;;;;;;4.50;65.48;98536.31;7395103;19;20487;-65
2021/12/02 02:18:13;;;;;;;3.88;0.70;;;;;;;4.49;65.59;98547.63;7395980;19;20074;-64
2021/12/02 02:20:50;;;;;;;5.60;0.95;;;;;;;4.47;64.73;98559.78;7394720;19;20010;-65
2021/12/02 02:23:18;;;;;;;3.00;0.80;;;;;;;4.47;64.96;98552.00;7394926;19;20022;-65
2021/12/02 02:25:47;;;;;;;3.95;0.98;;;;;;;4.46;65.35;98548.56;7393479;19;20484;-65
2021/12/02 02:28:16;;;;;;;4.57;0.95;;;;;;;4.47;66.08;98549.41;7395536;19;20025;-65
2021/12/02 02:30:45;;;;;;;5.60;1.40;;;;;;;4.44;65.76;98550.34;7395122;19;20017;-65
2021/12/02 02:33:16;;;;;;;5.22;0.90;;;;;;;4.44;65.11;98549.50;7393692;19;20018;-65
2021/12/02 02:35:49;;;;;;;5.97;0.98;;;;;;;4.44;65.13;98554.69;7395042;19;20019;-65
2021/12/02 02:38:17;;;;;;;6.05;1.05;;;;;;;4.44;65.92;98567.69;7394029;19;20380;-64
2021/12/02 02:40:48;;;;;;;4.35;0.90;;;;;;;4.46;66.16;98552.88;7393441;19;20018;-64
2021/12/02 02:43:21;;;;;;;3.80;0.80;;;;;;;4.43;65.39;98563.38;7394427;19;20390;-64
2021/12/02 02:45:50;;;;;;;4.75;0.80;;;;;;;4.45;66.07;98571.94;7393524;19;20043;-65
2021/12/02 02:48:19;;;;;;;4.75;1.00;;;;;;;4.42;65.00;98557.31;7394901;19;20018;-65
2021/12/02 02:50:50;;;;;;;4.38;1.25;;;;;;;4.39;65.16;98584.22;7394929;19;20021;-65
2021/12/02 02:53:23;;;;;;;2.47;0.60;;;;;;;4.36;65.14;98581.75;7395231;19;20015;-65
2021/12/02 02:56:01;;;;;;;6.53;1.00;;;;;;;4.35;65.21;98597.38;7393677;19;20022;-65
2021/12/02 02:58:41;;;;;;;3.42;0.65;;;;;;;4.35;66.01;98595.63;7395155;19;20035;-65
2021/12/02 03:01:23;;;;;;;3.65;0.90;;;;;;;4.33;65.54;98607.78;7402213;19;20026;-65
2021/12/02 03:03:59;;;;;;;3.35;1.05;;;;;;;4.31;65.35;98616.50;7400803;19;20015;-65
2021/12/02 03:06:37;;;;;;;2.60;0.80;;;;;;;4.27;65.28;98605.38;7400646;19;20015;-65
2021/12/02 03:09:12;;;;;;;3.08;0.88;;;;;;;4.25;65.82;98612.38;7402338;19;20020;-65
2021/12/02 03:11:46;;;;;;;4.15;1.02;;;;;;;4.25;65.57;98625.34;7402206;19;20011;-65
2021/12/02 03:14:18;;;;;;;2.35;0.63;;;;;;;4.23;66.09;98608.97;7399469;19;20031;-65
2021/12/02 03:16:44;;;;;;;4.00;0.65;;;;;;;4.21;65.77;98611.63;7399541;19;20014;-64
2021/12/02 03:19:15;;;;;;;2.33;0.85;;;;;;;4.22;66.13;98607.25;7401855;19;20366;-64
2021/12/02 03:21:46;;;;;;;5.43;1.13;;;;;;;4.21;65.91;98614.22;7402613;19;20015;-65
2021/12/02 03:24:14;;;;;;;5.32;1.08;;;;;;;4.20;65.60;98628.06;7399508;19;20038;-65
2021/12/02 03:26:43;;;;;;;4.45;0.82;;;;;;;4.21;66.17;98608.19;7400059;19;20090;-64
2021/12/02 03:29:11;;;;;;;3.67;0.70;;;;;;;4.19;65.25;98607.38;7403862;19;20078;-66
2021/12/02 03:31:40;;;;;;;6.20;0.90;;;;;;;4.13;65.24;98608.38;7399894;19;20018;-65
2021/12/02 03:34:09;;;;;;;2.17;0.68;;;;;;;4.16;65.37;98621.28;7400815;19;20504;-65
2021/12/02 03:36:38;;;;;;;2.65;0.77;;;;;;;4.12;64.55;98630.06;7399054;19;20018;-65
2021/12/02 03:39:11;;;;;;;4.28;1.17;;;;;;;4.11;64.78;98637.88;7398351;19;20477;-65
2021/12/02 03:41:42;;;;;;;3.80;1.30;;;;;;;4.07;64.87;98630.19;7400476;19;20078;-65
2021/12/02 03:44:11;;;;;;;6.68;0.60;;;;;;;4.08;65.82;98629.31;7399691;19;20018;-65
2021/12/02 03:49:21;;;;;;;3.17;0.90;;;;;;;4.09;66.05;98617.16;7397408;19;20021;-65
2021/12/02 03:51:50;;;;;;;4.22;0.73;;;;;;;4.08;65.57;98631.91;7398025;19;20094;-65
2021/12/02 03:54:20;;;;;;;2.35;0.70;;;;;;;4.08;65.77;98629.31;7400507;19;20032;-65
2021/12/02 03:56:48;;;;;;;7.78;1.05;;;;;;;4.08;66.13;98624.13;7398501;19;20023;-65
2021/12/02 03:59:17;;;;;;;0.98;0.70;;;;;;;4.05;64.91;98663.09;7397800;19;20019;-65
2021/12/02 04:01:45;;;;;;;4.18;0.75;;;;;;;4.02;65.70;98641.59;7400234;19;20079;-65
2021/12/02 04:04:13;;;;;;;3.03;0.63;;;;;;;3.95;65.24;98658.25;7399878;19;20014;-65
2021/12/02 04:06:41;;;;;;;5.35;1.02;;;;;;;3.89;65.52;98651.47;7398070;19;20022;-65
2021/12/02 04:09:13;;;;;;;4.60;1.00;;;;;;;3.85;66.12;98673.19;7399845;19;20019;-65
2021/12/02 04:11:49;;;;;;;5.07;0.88;;;;;;;3.79;66.31;98673.38;7398548;19;20025;-66
2021/12/02 04:14:22;;;;;;;4.05;1.00;;;;;;;3.77;66.88;98654.38;7397566;19;20505;-66
2021/12/02 04:16:57;;;;;;;5.83;1.23;;;;;;;3.73;67.08;98692.56;7397199;19;20015;-65
2021/12/02 04:19:26;;;;;;;5.70;0.80;;;;;;;3.67;66.91;98670.22;7397811;19;20015;-65
2021/12/02 04:21:57;;;;;;;5.78;0.90;;;;;;;3.66;67.64;98683.22;7399593;19;20014;-65
2021/12/02 04:24:25;;;;;;;3.28;0.88;;;;;;;3.63;67.95;98681.56;7398489;19;20014;-65
2021/12/02 04:26:57;;;;;;;2.42;0.90;;;;;;;3.55;67.54;98671.41;7396878;19;20022;-66
2021/12/02 04:29:25;;;;;;;5.45;1.10;;;;;;;3.57;68.05;98684.31;7399337;19;20027;-65
2021/12/02 04:31:54;;;;;;;3.67;1.00;;;;;;;3.54;67.52;98689.59;7399143;19;20040;-65
2021/12/02 04:34:29;;;;;;;5.15;1.13;;;;;;;3.50;67.10;98698.31;7396456;19;20019;-65
2021/12/02 04:36:57;;;;;;;6.20;0.98;;;;;;;3.47;66.85;98721.75;7397011;19;20022;-65
2021/12/02 04:39:25;;;;;;;3.72;0.68;;;;;;;3.47;66.91;98726.94;7396850;19;20014;-65
2021/12/02 04:41:56;;;;;;;4.57;1.00;;;;;;;3.48;67.24;98697.53;7399168;19;20035;-66
2021/12/02 04:44:24;;;;;;;3.28;1.10;;;;;;;3.47;66.98;98699.25;7397839;19;20019;-65
2021/12/02 04:46:53;;;;;;;5.28;1.20;;;;;;;3.45;66.77;98713.16;7396504;19;20035;-65
2021/12/02 04:49:21;;;;;;;7.53;1.77;;;;;;;3.43;67.65;98728.75;7398525;19;20021;-65
2021/12/02 04:51:49;;;;;;;4.65;1.02;;;;;;;3.39;67.22;98707.22;7396543;19;20035;-65
2021/12/02 04:54:18;;;;;;;5.45;1.30;;;;;;;3.39;67.76;98730.56;7398357;19;20027;-65
2021/12/02 04:56:46;;;;;;;1.88;1.08;;;;;;;3.36;68.39;98719.41;7396826;19;20039;-65
2021/12/02 04:59:17;;;;;;;9.70;2.00;;;;;;;3.34;68.23;98724.66;7397960;19;20036;-65
2021/12/02 05:01:45;;;;;;;3.85;1.20;;;;;;;3.30;68.30;98727.34;7396474;19;20019;-65
2021/12/02 05:04:13;;;;;;;5.50;1.52;;;;;;;3.27;68.44;98736.03;7397106;19;20424;-65
2021/12/02 05:06:41;;;;;;;4.50;0.98;;;;;;;3.23;67.63;98749.97;7396162;19;20031;-65
2021/12/02 05:09:09;;;;;;;5.53;1.55;;;;;;;3.23;68.37;98734.41;7397596;19;20019;-65
2021/12/02 05:11:38;;;;;;;9.40;1.38;;;;;;;3.21;67.74;98780.25;7397730;19;20015;-65
2021/12/02 05:14:08;;;;;;;4.60;1.70;;;;;;;3.22;68.42;98769.88;7397899;19;20026;-66
2021/12/02 05:16:40;;;;;;;6.53;0.90;;;;;;;3.24;68.15;98749.09;7395394;19;20015;-65
2021/12/02 05:19:08;;;;;;;8.18;1.52;;;;;;;3.25;68.39;98763.75;7395257;19;20476;-66
2021/12/02 05:21:36;;;;;;;4.53;1.30;;;;;;;3.24;68.66;98752.53;7397162;19;20018;-66
2021/12/02 05:24:04;;;;;;;5.03;1.60;;;;;;;3.21;69.70;98788.00;7394943;19;20027;-66
2021/12/02 05:26:32;;;;;;;5.15;0.88;;;;;;;3.16;71.67;98795.03;7395431;19;20019;-66
2021/12/02 05:29:00;;;;;;;4.63;1.23;;;;;;;3.07;72.57;98791.78;7395105;19;20022;-66
2021/12/02 05:31:29;;;;;;;6.60;1.35;;;;;;;3.00;73.32;98785.03;7395109;19;20082;-66
2021/12/02 05:33:59;;;;;;;8.52;1.67;;;;;;;2.93;74.27;98799.88;7396732;19;20028;-66
2021/12/02 05:36:28;;;;;;;3.92;1.08;;;;;;;2.86;74.23;98784.50;7394923;19;20039;-66
2021/12/02 05:38:56;;;;;;;3.25;1.10;;;;;;;2.79;74.71;98794.13;7394395;19;20082;-66
2021/12/02 05:41:24;;;;;;;9.02;1.50;;;;;;;2.72;74.46;98801.16;7395295;19;20035;-66
2021/12/02 05:43:52;;;;;;;4.57;1.40;;;;;;;2.68;75.12;98793.50;7395576;19;20420;-66
2021/12/02 05:46:20;;;;;;;3.92;1.30;;;;;;;2.64;74.98;98782.38;7394391;19;20035;-66
2021/12/02 05:48:48;;;;;;;4.88;0.95;;;;;;;2.57;75.45;98804.09;7396445;19;20026;-66
2021/12/02 05:51:19;;;;;;;4.60;0.90;;;;;;;2.52;75.08;98793.81;7396245;19;20022;-67
2021/12/02 05:53:47;;;;;;;4.78;1.00;;;;;;;2.51;75.09;98778.31;7394407;19;20035;-66
2021/12/02 05:56:15;;;;;;;3.70;1.20;;;;;;;2.44;75.12;98778.44;7394157;19;20431;-65
2021/12/02 05:58:44;;;;;;;2.95;1.10;;;;;;;2.40;75.22;98768.16;7393295;19;20022;-65
2021/12/02 06:01:12;;;;;;;5.85;1.10;;;;;;;2.41;75.35;98781.09;7395113;19;20353;-67
2021/12/02 06:03:40;;;;;;;3.03;1.20;;;;;;;2.39;75.27;98788.03;7393409;19;20023;-65
2021/12/02 06:06:09;;;;;;;7.80;1.10;;;;;;;2.37;75.01;98773.41;7394104;19;20015;-66
2021/12/02 06:08:40;;;;;;;5.50;1.00;;;;;;;2.35;74.53;98796.75;7393687;19;20024;-67
2021/12/02 06:11:08;;;;;;;6.68;1.00;;;;;;;2.36;74.17;98818.28;7393420;19;20022;-65
2021/12/02 06:13:37;;;;;;;3.17;0.95;;;;;;;2.37;73.86;98792.38;7393378;19;20098;-65
2021/12/02 06:16:05;;;;;;;3.80;0.75;;;;;;;2.38;73.66;98806.19;7393533;19;20035;-66
2021/12/02 06:18:34;;;;;;;6.50;1.10;;;;;;;2.37;72.68;98814.84;7391155;19;20095;-65
2021/12/02 06:21:08;;;;;;;9.80;1.50;;;;;;;2.37;72.77;98817.41;7394053;19;20031;-66
2021/12/02 06:23:40;;;;;;;5.38;0.90;;;;;;;2.35;71.97;98811.41;7393751;19;20501;-66
2021/12/02 06:26:10;;;;;;;7.25;1.52;;;;;;;2.33;71.25;98814.03;7392826;19;20052;-66
2021/12/02 06:28:39;;;;;;;4.60;0.90;;;;;;;2.30;70.45;98834.81;7394667;19;20039;-66
2021/12/02 06:31:07;;;;;;;3.50;0.80;;;;;;;2.30;71.70;98833.94;7392357;19;20014;-66
2021/12/02 06:33:36;;;;;;;3.33;0.98;;;;;;;2.29;71.84;98848.63;7392320;19;20019;-66
2021/12/02 06:36:04;;;;;;;2.97;0.82;;;;;;;2.23;70.57;98859.91;7393502;19;20014;-66
2021/12/02 06:38:47;;;;;;;3.55;1.30;;;;;;;2.21;69.97;98866.88;7391945;19;20082;-66
2021/12/02 06:41:16;;;;;;;3.50;0.80;;;;;;;2.11;70.08;98868.75;7392506;19;20010;-66
2021/12/02 06:43:44;;;;;;;4.25;0.82;;;;;;;2.15;71.26;98907.50;7392383;19;20015;-65
2021/12/02 06:46:12;;;;;;;6.78;1.23;;;;;;;2.15;70.38;98866.13;7392015;19;20031;-65
2021/12/02 06:48:40;;;;;;;3.78;0.90;;;;;;;2.12;70.84;98882.53;7392188;19;20035;-65
2021/12/02 06:51:10;;;;;;;3.05;1.00;;;;;;;2.09;71.40;98880.88;7394229;19;20019;-65
2021/12/02 06:53:38;;;;;;;4.75;1.20;;;;;;;2.06;71.83;98873.16;7394152;19;20014;-66
2021/12/02 06:56:09;;;;;;;2.22;0.90;;;;;;;2.03;71.03;98903.41;7392260;19;20034;-66
2021/12/02 06:58:38;;;;;;;4.70;0.90;;;;;;;2.03;71.34;98913.75;7394818;19;20018;-66
2021/12/02 07:01:06;;;;;;;5.63;1.63;;;;;;;1.99;71.06;98910.34;7395163;19;20014;-66
2021/12/02 07:03:34;;;;;;;2.67;1.13;;;;;;;2.00;71.82;98900.84;7395278;19;20019;-66
2021/12/02 07:06:02;;;;;;;2.65;0.90;;;;;;;1.97;71.98;98912.09;7393104;19;20019;-66
2021/12/02 07:08:31;;;;;;;6.28;1.23;;;;;;;1.95;71.62;98922.47;7393519;19;20022;-65
2021/12/02 07:11:04;;;;;;;6.93;1.25;;;;;;;1.94;71.63;98919.94;7391898;19;20019;-65
2021/12/02 07:13:36;;;;;;;3.95;0.90;;;;;;;1.93;71.76;98923.38;7394381;19;20032;-65
2021/12/02 07:16:04;;;;;;;5.85;1.55;;;;;;;1.88;71.42;98932.94;7392412;19;20475;-66
2021/12/02 07:18:37;;;;;;;7.38;1.00;;;;;;;1.90;72.24;98929.47;7393232;19;20023;-65
2021/12/02 07:21:05;;;;;;;2.55;1.38;;;;;;;1.90;72.54;98928.63;7393538;19;20011;-66
2021/12/02 07:23:33;;;;;;;5.45;1.40;;;;;;;1.88;72.71;98932.94;7392801;19;20022;-65
2021/12/02 07:26:01;;;;;;;4.40;1.23;;;;;;;1.87;72.31;98944.16;7391233;19;20074;-65
2021/12/02 07:28:34;;;;;;;3.25;0.90;;;;;;;1.86;72.41;98957.97;7392678;19;20026;-65
2021/12/02 07:31:06;;;;;;;5.28;1.52;;;;;;;1.85;71.88;98966.63;7394334;19;20102;-65
2021/12/02 07:33:39;;;;;;;5.40;1.50;;;;;;;1.84;71.43;98964.91;7393412;19;20078;-67
2021/12/02 07:36:07;;;;;;;2.90;1.30;;;;;;;1.84;71.50;98973.50;7390950;19;20018;-65
2021/12/02 07:38:38;;;;;;;7.50;1.40;;;;;;;1.85;71.82;98974.38;7392374;19;20039;-65
2021/12/02 07:41:07;;;;;;;4.72;1.30;;;;;;;1.82;71.24;98972.69;7390816;19;20478;-67
2021/12/02 07:43:37;;;;;;;4.03;1.30;;;;;;;1.84;71.26;98985.59;7391098;19;20019;-66
2021/12/02 07:46:08;;;;;;;5.05;1.25;;;;;;;1.84;71.71;98995.94;7391192;19;20374;-66
2021/12/02 07:48:37;;;;;;;2.55;0.88;;;;;;;1.83;71.59;98991.66;7400918;19;20022;-66
2021/12/02 07:51:11;;;;;;;5.38;2.20;;;;;;;1.86;71.58;98995.03;7400016;19;20011;-66
2021/12/02 07:53:42;;;;;;;6.28;2.17;;;;;;;1.86;71.71;99001.94;7397827;19;20022;-66
2021/12/02 07:56:13;;;;;;;5.53;1.15;;;;;;;1.86;71.41;99004.50;7399141;19;20027;-65
2021/12/02 07:58:44;;;;;;;5.32;1.58;;;;;;;1.86;71.64;98986.41;7400479;19;20015;-66
2021/12/02 08:01:16;;;;;;;6.10;1.08;;;;;;;1.83;71.48;99000.25;7397678;19;20462;-66
2021/12/02 08:03:47;;;;;;;9.52;2.00;;;;;;;1.86;71.80;99015.72;7400065;19;20031;-66
2021/12/02 08:06:17;;;;;;;5.05;1.20;;;;;;;1.85;72.04;99006.25;7397608;19;20024;-66
2021/12/02 08:08:47;;;;;;;5.93;1.23;;;;;;;1.84;71.51;99007.13;7399888;19;20031;-66
2021/12/02 08:11:15;;;;;;;5.07;1.10;;;;;;;1.85;71.16;99006.25;7397450;19;20040;-66
2021/12/02 08:13:44;;;;;;;5.10;1.20;;;;;;;1.84;71.68;99016.63;7400271;19;20035;-66
2021/12/02 08:16:14;;;;;;;4.20;1.50;;;;;;;1.86;71.40;99031.25;7397433;19;20015;-66
2021/12/02 08:18:42;;;;;;;4.25;1.25;;;;;;;1.87;71.84;99025.22;7399066;19;20385;-66
2021/12/02 08:21:10;;;;;;;4.50;1.00;;;;;;;1.86;70.56;99043.31;7395667;19;20558;-66
2021/12/02 08:23:39;;;;;;;5.82;1.27;;;;;;;1.88;71.39;99032.06;7396351;19;20019;-66
2021/12/02 08:26:07;;;;;;;3.97;1.00;;;;;;;1.87;70.12;99034.69;7397153;19;20082;-66
2021/12/02 08:28:35;;;;;;;2.30;1.20;;;;;;;1.90;70.74;99035.50;7398662;19;20476;-66
2021/12/02 08:31:03;;;;;;;4.53;1.20;;;;;;;1.91;70.22;99051.88;7396138;19;20074;-66
2021/12/02 08:33:34;;;;;;;3.35;0.90;;;;;;;1.92;69.73;99066.50;7397388;19;20018;-66
2021/12/02 08:36:02;;;;;;;4.07;0.90;;;;;;;1.91;69.05;99075.16;7395866;19;20035;-65
2021/12/02 08:38:33;;;;;;;2.42;0.90;;;;;;;1.92;68.56;99061.34;7397582;19;20382;-66
2021/12/02 08:41:02;;;;;;;3.13;0.90;;;;;;;1.93;68.15;99057.88;7395398;19;20015;-65
2021/12/02 08:43:31;;;;;;;5.57;1.30;;;;;;;1.94;67.13;99080.28;7398257;19;20476;-65
2021/12/02 08:45:59;;;;;;;4.85;1.05;;;;;;;1.93;68.15;99081.16;7397114;19;20014;-66
2021/12/02 08:48:28;;;;;;;4.25;1.00;;;;;;;1.97;68.44;99072.47;7398347;19;20031;-65
2021/12/02 08:50:58;;;;;;;4.07;0.90;;;;;;;1.96;66.90;99086.31;7396111;19;20031;-65
2021/12/02 08:53:27;;;;;;;2.80;0.88;;;;;;;1.98;67.45;99092.28;7395674;19;20022;-65
2021/12/02 08:55:55;;;;;;;4.65;1.30;;;;;;;1.98;65.30;99097.47;7397400;19;20035;-65
2021/12/02 08:58:23;;;;;;;5.65;1.17;;;;;;;2.00;65.52;99097.44;7397463;19;20062;-66
2021/12/02 09:00:51;;;;;;;2.88;0.98;;;;;;;2.01;65.98;99092.28;7398107;19;20036;-65
2021/12/02 09:03:19;;;;;;;2.75;1.05;;;;;;;2.01;65.84;99100.03;7395626;19;20032;-65
2021/12/02 09:05:47;;;;;;;2.38;0.70;;;;;;;2.01;61.98;99125.91;7395503;19;20018;-65
2021/12/02 09:08:20;;;;;;;1.85;1.00;;;;;;;2.01;61.94;99117.25;7395542;19;20039;-66
2021/12/02 09:10:48;;;;;;;3.97;0.73;;;;;;;2.01;61.10;99143.13;7398748;19;20032;-65
2021/12/02 09:13:16;;;;;;;6.53;0.95;;;;;;;2.03;62.46;99125.88;7395049;19;20483;-66
2021/12/02 09:15:44;;;;;;;1.25;0.90;;;;;;;2.04;62.37;99151.72;7395623;19;20022;-65
2021/12/02 09:18:13;;;;;;;2.90;0.70;;;;;;;2.05;61.67;99130.16;7395737;19;20018;-64
2021/12/02 09:20:42;;;;;;;3.15;0.88;;;;;;;2.07;62.48;99149.09;7395179;19;20523;-65
2021/12/02 09:23:13;;;;;;;2.92;0.85;;;;;;;2.09;62.66;99125.78;7397380;19;20018;-62
2021/12/02 09:25:44;;;;;;;2.65;0.90;;;;;;;2.11;62.10;99136.97;7395083;19;20018;-64
2021/12/02 09:28:15;;;;;;;2.67;0.80;;;;;;;2.14;62.70;99138.66;7397057;19;20027;-64
2021/12/02 09:30:44;;;;;;;4.65;0.85;;;;;;;2.17;61.63;99146.38;7398125;19;20019;-63
2021/12/02 09:33:12;;;;;;;3.78;1.17;;;;;;;2.18;60.89;99153.28;7394082;19;20018;-63
2021/12/02 09:35:40;;;;;;;1.90;0.80;;;;;;;2.20;60.81;99154.09;7395808;19;20022;-66
2021/12/02 09:38:10;;;;;;;1.45;0.60;;;;;;;2.20;57.85;99167.03;7396103;19;20511;-66
2021/12/02 09:40:40;;;;;;;7.03;1.05;;;;;;;2.21;58.24;99184.28;7394377;19;20015;-65
2021/12/02 09:43:14;;;;;;;1.70;0.80;;;;;;;2.20;57.74;99169.63;7395742;19;20037;-65
2021/12/02 09:45:42;;;;;;;3.53;1.13;;;;;;;2.23;59.71;99185.13;7396173;19;20074;-65
2021/12/02 09:48:11;;;;;;;1.75;0.85;;;;;;;2.25;60.98;99149.72;7395227;19;20023;-65
2021/12/02 09:50:50;;;;;;;1.70;0.98;;;;;;;2.29;61.46;99164.34;7394590;19;20044;-65
2021/12/02 09:53:21;;;;;;;3.17;1.05;;;;;;;2.33;60.60;99165.16;7395992;19;20459;-65
2021/12/02 09:55:54;;;;;;;3.65;1.00;;;;;;;2.30;56.61;99160.88;7395913;19;20026;-65
2021/12/02 09:58:26;;;;;;;3.03;0.90;;;;;;;2.32;57.44;99153.94;7396404;19;20025;-65
2021/12/02 10:00:59;;;;;;;1.67;0.70;;;;;;;2.35;59.27;99159.09;7395650;19;20360;-65
2021/12/02 10:03:32;;;;;;;4.15;0.98;;;;;;;2.35;57.05;99176.34;7395549;19;20355;-65
2021/12/02 10:06:04;;;;;;;2.70;0.65;;;;;;;2.36;57.09;99171.13;7395132;19;20070;-66
2021/12/02 10:08:37;;;;;;;2.58;0.75;;;;;;;2.34;56.55;99154.78;7395103;19;20036;-65
2021/12/02 10:11:08;;;;;;;3.65;0.70;;;;;;;2.35;56.65;99166.84;7395170;19;20018;-65
2021/12/02 10:13:45;;;;;;;3.05;0.60;;;;;;;2.35;56.45;99159.09;7395139;19;20086;-65
2021/12/02 10:16:22;;;;;;;2.90;0.68;;;;;;;2.35;57.93;99153.03;7394076;19;20015;-65
2021/12/02 10:19:02;;;;;;;4.72;0.80;;;;;;;2.35;56.42;99195.31;7397208;19;20037;-66
2021/12/02 10:21:37;;;;;;;2.63;0.90;;;;;;;2.38;57.95;99148.69;7395009;19;20010;-65
2021/12/02 10:24:08;;;;;;;3.63;1.05;;;;;;;2.38;58.23;99155.59;7393931;19;20085;-65
2021/12/02 10:26:39;;;;;;;5.07;1.00;;;;;;;2.40;56.17;99162.47;7393650;19;20019;-65
2021/12/02 10:29:19;;;;;;;1.67;0.60;;;;;;;2.43;56.44;99158.97;7393195;19;20094;-65
2021/12/02 10:31:49;;;;;;;3.30;0.70;;;;;;;2.44;57.11;99173.66;7392654;19;20416;-65
2021/12/02 10:34:19;;;;;;;2.72;1.10;;;;;;;2.47;58.45;99168.41;7392906;19;20026;-64
2021/12/02 10:36:49;;;;;;;2.05;0.63;;;;;;;2.47;56.95;99171.00;7393008;19;20018;-66
2021/12/02 10:39:21;;;;;;;2.55;0.70;;;;;;;2.50;58.63;99176.13;7394108;19;20381;-65
2021/12/02 10:42:01;;;;;;;5.10;0.80;;;;;;;2.50;56.03;99172.69;7392898;19;20370;-65
2021/12/02 10:44:34;;;;;;;3.05;1.08;;;;;;;2.52;55.76;99181.31;7395016;19;20022;-65
2021/12/02 10:47:05;;;;;;;2.88;0.75;;;;;;;2.53;54.89;99177.84;7392313;19;20505;-64
2021/12/02 10:49:37;;;;;;;2.35;0.68;;;;;;;2.54;55.65;99177.81;7395101;19;20096;-64
2021/12/02 10:52:09;;;;;;;3.67;0.80;;;;;;;2.56;56.39;99177.78;7395178;19;20106;-65
2021/12/02 10:54:40;;;;;;;3.75;0.50;;;;;;;2.59;57.72;99180.31;7394981;19;20021;-64
2021/12/02 10:57:11;;;;;;;1.88;1.05;;;;;;;2.59;55.66;99180.31;7392718;19;20017;-65
2021/12/02 10:59:46;;;;;;;1.42;0.52;;;;;;;2.59;54.49;99204.50;7391890;19;20362;-64
2021/12/02 11:02:21;;;;;;;3.50;0.95;;;;;;;2.62;56.53;99206.19;7392724;19;20386;-64
2021/12/02 11:04:52;;;;;;;1.48;0.70;;;;;;;2.65;56.32;99200.94;7394490;19;20025;-65
2021/12/02 11:07:26;;;;;;;1.60;0.85;;;;;;;2.66;53.88;99197.47;7392815;19;20014;-64
2021/12/02 11:09:55;;;;;;;1.77;0.88;;;;;;;2.69;53.62;99202.63;7391837;19;20022;-65
2021/12/02 11:12:27;;;;;;;1.55;0.80;;;;;;;2.72;54.55;99205.16;7393575;19;20015;-65
2021/12/02 11:15:01;;;;;;;2.85;0.98;;;;;;;2.75;54.91;99201.69;7394246;19;20014;-65
2021/12/02 11:17:33;;;;;;;3.08;0.75;;;;;;;2.77;52.63;99218.06;7392320;19;20022;-66
2021/12/02 11:20:07;;;;;;;1.20;0.68;;;;;;;2.77;53.34;99203.38;7392275;19;20018;-65
2021/12/02 11:22:35;;;;;;;1.75;0.75;;;;;;;2.79;54.19;99205.09;7401049;19;20031;-65
2021/12/02 11:25:04;;;;;;;4.55;0.93;;;;;;;2.81;53.03;99217.13;7400142;19;20019;-65
2021/12/02 11:27:38;;;;;;;1.60;0.85;;;;;;;2.80;52.27;99235.28;7397932;19;20022;-65
2021/12/02 11:30:16;;;;;;;2.05;0.52;;;;;;;2.80;53.28;99196.44;7401145;19;20025;-65
2021/12/02 11:32:48;;;;;;;3.60;0.77;;;;;;;2.82;53.25;99185.19;7400613;19;20424;-65
2021/12/02 11:35:23;;;;;;;2.65;0.70;;;;;;;2.85;53.42;99199.81;7397309;19;20030;-65
2021/12/02 11:37:54;;;;;;;1.02;0.65;;;;;;;2.87;53.13;99200.63;7398332;19;20034;-66
2021/12/02 11:40:26;;;;;;;3.80;0.98;;;;;;;2.87;52.28;99203.22;7400264;19;20103;-65
2021/12/02 11:42:56;;;;;;;1.13;0.60;;;;;;;2.88;53.01;99194.56;7401398;19;20413;-64
2021/12/02 11:45:29;;;;;;;2.40;1.38;;;;;;;2.89;52.66;99212.72;7397942;19;20018;-64
2021/12/02 11:47:58;;;;;;;1.87;0.80;;;;;;;2.91;53.59;99197.97;7400927;19;20023;-65
2021/12/02 11:50:30;;;;;;;1.98;0.80;;;;;;;2.92;53.99;99216.97;7397648;19;21108;-65
2021/12/02 11:53:05;;;;;;;2.45;0.50;;;;;;;2.92;51.63;99227.34;7400910;19;20019;-66
2021/12/02 11:55:35;;;;;;;2.05;1.00;;;;;;;2.91;51.95;99221.28;7399780;19;20035;-65
2021/12/02 11:58:03;;;;;;;2.45;1.00;;;;;;;2.92;52.84;99219.56;7400753;19;20386;-65
2021/12/02 12:00:35;;;;;;;3.72;0.98;;;;;;;2.93;51.41;99229.03;7399824;19;20031;-64
2021/12/02 12:03:05;;;;;;;1.55;0.70;;;;;;;2.95;52.28;99234.22;7400175;19;20027;-65